Terminal Aerodrome Forecast
Issued by NWS Jackson, MS

Home | Current Version | Previous Version | Text Only | Print | Product List | Glossary On
Versions: 1 2 3 4 5 6 7 8 9 10 11 12 13
000
FTUS44 KJAN 211130
TAFGWO
TAF
KGWO 211130Z 2112/2212 08005KT P6SM BKN050 OVC090
     FM220100 14008KT P6SM VCTS SCT030 BKN090CB BKN130
     FM220300 15010KT 3SM TSRA BKN025 BKN050CB
     FM220600 20009KT 6SM -TSRA BKN025CB OVC250=

USA.gov is the U.S. government's official web portal to all federal, state and local government web resources and services.